F\d Erato — SW8206 — position and weather

sailwx.info

Track history (hours):
 
Tides and Currents Weather Stations Pressure Air Temp Water Temp Dewpoint Dewpoint Depression Visibility Wind Speed Wind Dir Waves Ship Positions

F\d Erato

Last reported at 2015-Jan-26 16:34 UTC. Time now 2015-Jan-26 22:35 UTC.
Position N 37°54' E 023°31'.

Length 35 m; draft 1.8 m.

Type: Ship (hazmat cat B). MMSI: 237034100.

Date/timePositionNaut miles runAvg speedWind from/ knotsBaromVisibWave heightAir tempDewpointWater temp
2015-Jan-26 16:34N 37°54' E 023°31'7 6.8
2015-Jan-26 15:34N 37°48' E 023°26'1 0.5
2015-Jan-26 14:34N 37°48' E 023°27'1211.8
2015-Jan-26 13:34N 37°56' E 023°37'1313.3
2015-Jan-26 12:34N 37°47' E 023°26'10 2.0
2015-Jan-26 07:33N 37°55' E 023°33'1110.3
2015-Jan-26 06:29N 37°46' E 023°25'1112.4
2015-Jan-26 05:34N 37°55' E 023°33'3 0.3
2015-Jan-25 16:33N 37°52' E 023°33'7 7.1
2015-Jan-25 15:32N 37°47' E 023°25'0 0.5
2015-Jan-25 14:33N 37°47' E 023°26'1212.4
2015-Jan-25 13:34N 37°56' E 023°37'7 2.3
2015-Jan-25 10:32N 37°52' E 023°30'3 2.7
2015-Jan-25 09:33N 37°49' E 023°28'3 2.7
2015-Jan-25 08:29N 37°47' E 023°26'1111.7
2015-Jan-25 07:33N 37°55' E 023°35'12 0.9
2015-Jan-24 17:06N 37°46' E 023°25'1 2.8
2015-Jan-24 16:34N 37°47' E 023°25'6 6.4
2015-Jan-24 15:34N 37°52' E 023°30'7 7.0
2015-Jan-24 14:33N 37°47' E 023°25'1313.4
2015-Jan-24 13:34N 37°56' E 023°37'13 4.4
2015-Jan-24 10:34N 37°47' E 023°26'10 9.7
2015-Jan-24 09:34N 37°54' E 023°33'1 0.9
2015-Jan-24 08:32N 37°54' E 023°32'3 2.9
2015-Jan-24 07:34N 37°54' E 023°35'4 0.1
2015-Jan-22 16:34N 37°51' E 023°32'4 4.0
2015-Jan-22 15:34N 37°49' E 023°29'2 2.4
2015-Jan-22 14:33N 37°47' E 023°26'1312.8
2015-Jan-22 13:33N 37°56' E 023°38'1313.0
2015-Jan-22 12:34N 37°47' E 023°26'10 1.9
2015-Jan-22 07:34N 37°54' E 023°35'1110.5
2015-Jan-22 06:28N 37°46' E 023°25'1213.4
2015-Jan-22 05:33N 37°54' E 023°36'11 0.9
2015-Jan-21 16:33N 37°46' E 023°25'8 8.1
2015-Jan-21 15:34N 37°53' E 023°30'9 8.7
2015-Jan-21 14:33N 37°46' E 023°25'1414.7
2015-Jan-21 13:34N 37°56' E 023°37'1111.4
2015-Jan-21 12:34N 37°48' E 023°27'12 2.7
2015-Jan-21 08:08N 37°56' E 023°38'5 9.2
2015-Jan-21 07:34N 37°54' E 023°32'0 0.1
2015-Jan-21 06:32N 37°54' E 023°32'2 1.6
2015-Jan-21 05:34N 37°55' E 023°33'6 0.5
2015-Jan-20 16:34N 37°49' E 023°30'6 5.8
2015-Jan-20 15:34N 37°55' E 023°32'8 8.5
2015-Jan-20 14:33N 37°48' E 023°26'1211.9
2015-Jan-20 13:34N 37°56' E 023°37'1110.7
2015-Jan-20 12:34N 37°49' E 023°27'7 1.4
2015-Jan-20 07:34N 37°54' E 023°32'10 9.8
2015-Jan-20 06:30N 37°46' E 023°25'1111.8
2015-Jan-20 05:33N 37°55' E 023°33'6 0.4
2015-Jan-19 15:03N 37°51' E 023°28'1 2.6
2015-Jan-19 14:33N 37°50' E 023°27'9 1.5
2015-Jan-19 08:26N 37°56' E 023°35'1213.7
2015-Jan-19 07:33N 37°47' E 023°25'5 4.9
2015-Jan-19 06:34N 37°51' E 023°28'3 2.6
2015-Jan-19 05:33N 37°53' E 023°30'4 0.4
2015-Jan-18 17:34N 37°56' E 023°35'  
Track history (hours):
 
Tides and Currents Weather Stations Pressure Air Temp Water Temp Dewpoint Dewpoint Depression Visibility Wind Speed Wind Dir Waves Ship Positions

F\d Erato

Last reported at 2015-Jan-26 16:34 UTC. Time now 2015-Jan-26 22:35 UTC.
Position N 37°54' E 023°31'.

Length 35 m; draft 1.8 m.

Type: Ship (hazmat cat B). MMSI: 237034100.

Date/timePositionNaut miles runAvg speedWind from/ knotsBaromVisibWave heightAir tempDewpointWater temp
2015-Jan-26 16:34N 37°54' E 023°31'7 6.8
2015-Jan-26 15:34N 37°48' E 023°26'1 0.5
2015-Jan-26 14:34N 37°48' E 023°27'1211.8
2015-Jan-26 13:34N 37°56' E 023°37'1313.3
2015-Jan-26 12:34N 37°47' E 023°26'10 2.0
2015-Jan-26 07:33N 37°55' E 023°33'1110.3
2015-Jan-26 06:29N 37°46' E 023°25'1112.4
2015-Jan-26 05:34N 37°55' E 023°33'3 0.3
2015-Jan-25 16:33N 37°52' E 023°33'7 7.1
2015-Jan-25 15:32N 37°47' E 023°25'0 0.5
2015-Jan-25 14:33N 37°47' E 023°26'1212.4
2015-Jan-25 13:34N 37°56' E 023°37'7 2.3
2015-Jan-25 10:32N 37°52' E 023°30'3 2.7
2015-Jan-25 09:33N 37°49' E 023°28'3 2.7
2015-Jan-25 08:29N 37°47' E 023°26'1111.7
2015-Jan-25 07:33N 37°55' E 023°35'12 0.9
2015-Jan-24 17:06N 37°46' E 023°25'1 2.8
2015-Jan-24 16:34N 37°47' E 023°25'6 6.4
2015-Jan-24 15:34N 37°52' E 023°30'7 7.0
2015-Jan-24 14:33N 37°47' E 023°25'1313.4
2015-Jan-24 13:34N 37°56' E 023°37'13 4.4
2015-Jan-24 10:34N 37°47' E 023°26'10 9.7
2015-Jan-24 09:34N 37°54' E 023°33'1 0.9
2015-Jan-24 08:32N 37°54' E 023°32'3 2.9
2015-Jan-24 07:34N 37°54' E 023°35'4 0.1
2015-Jan-22 16:34N 37°51' E 023°32'4 4.0
2015-Jan-22 15:34N 37°49' E 023°29'2 2.4
2015-Jan-22 14:33N 37°47' E 023°26'1312.8
2015-Jan-22 13:33N 37°56' E 023°38'1313.0
2015-Jan-22 12:34N 37°47' E 023°26'10 1.9
2015-Jan-22 07:34N 37°54' E 023°35'1110.5
2015-Jan-22 06:28N 37°46' E 023°25'1213.4
2015-Jan-22 05:33N 37°54' E 023°36'11 0.9
2015-Jan-21 16:33N 37°46' E 023°25'8 8.1
2015-Jan-21 15:34N 37°53' E 023°30'9 8.7
2015-Jan-21 14:33N 37°46' E 023°25'1414.7
2015-Jan-21 13:34N 37°56' E 023°37'1111.4
2015-Jan-21 12:34N 37°48' E 023°27'12 2.7
2015-Jan-21 08:08N 37°56' E 023°38'5 9.2
2015-Jan-21 07:34N 37°54' E 023°32'0 0.1
2015-Jan-21 06:32N 37°54' E 023°32'2 1.6
2015-Jan-21 05:34N 37°55' E 023°33'6 0.5
2015-Jan-20 16:34N 37°49' E 023°30'6 5.8
2015-Jan-20 15:34N 37°55' E 023°32'8 8.5
2015-Jan-20 14:33N 37°48' E 023°26'1211.9
2015-Jan-20 13:34N 37°56' E 023°37'1110.7
2015-Jan-20 12:34N 37°49' E 023°27'7 1.4
2015-Jan-20 07:34N 37°54' E 023°32'10 9.8
2015-Jan-20 06:30N 37°46' E 023°25'1111.8
2015-Jan-20 05:33N 37°55' E 023°33'6 0.4
2015-Jan-19 15:03N 37°51' E 023°28'1 2.6
2015-Jan-19 14:33N 37°50' E 023°27'9 1.5
2015-Jan-19 08:26N 37°56' E 023°35'1213.7
2015-Jan-19 07:33N 37°47' E 023°25'5 4.9
2015-Jan-19 06:34N 37°51' E 023°28'3 2.6
2015-Jan-19 05:33N 37°53' E 023°30'4 0.4
2015-Jan-18 17:34N 37°56' E 023°35'  

Dump ship's entire track history